sensor_id;sensor_type;location;lat;lon;timestamp;pressure;altitude;pressure_sealevel;temperature;humidity
69035;BME280;56091;55.756;37.412;2023-02-22T00:01:59;97681.84;;;-15.58;71.73
69035;BME280;56091;55.756;37.412;2023-02-22T00:07:24;97687.75;;;-15.46;72.01
69035;BME280;56091;55.756;37.412;2023-02-22T00:12:25;97683.19;;;-15.74;71.88
69035;BME280;56091;55.756;37.412;2023-02-22T00:17:28;97698.47;;;-15.61;71.75
69035;BME280;56091;55.756;37.412;2023-02-22T00:22:30;97712.69;;;-15.45;71.56
69035;BME280;56091;55.756;37.412;2023-02-22T00:27:30;97730.22;;;-15.49;70.99
69035;BME280;56091;55.756;37.412;2023-02-22T00:32:31;97719.50;;;-15.75;71.72
69035;BME280;56091;55.756;37.412;2023-02-22T00:37:33;97729.09;;;-15.87;72.21
69035;BME280;56091;55.756;37.412;2023-02-22T00:42:35;97757.56;;;-15.77;72.11
69035;BME280;56091;55.756;37.412;2023-02-22T00:47:36;97730.06;;;-15.78;71.96
69035;BME280;56091;55.756;37.412;2023-02-22T00:52:37;97755.34;;;-15.61;71.97
69035;BME280;56091;55.756;37.412;2023-02-22T00:57:38;97735.19;;;-15.88;71.09
69035;BME280;56091;55.756;37.412;2023-02-22T01:02:41;97701.81;;;-16.01;71.39
69035;BME280;56091;55.756;37.412;2023-02-22T01:07:43;97763.13;;;-15.82;71.67
69035;BME280;56091;55.756;37.412;2023-02-22T01:12:45;97754.13;;;-15.87;71.89
69035;BME280;56091;55.756;37.412;2023-02-22T01:17:47;97773.19;;;-16.00;71.93
69035;BME280;56091;55.756;37.412;2023-02-22T01:22:49;97764.50;;;-15.99;71.78
69035;BME280;56091;55.756;37.412;2023-02-22T01:27:52;97748.47;;;-16.14;72.08
69035;BME280;56091;55.756;37.412;2023-02-22T01:32:53;97769.50;;;-16.18;72.29
69035;BME280;56091;55.756;37.412;2023-02-22T01:37:55;97786.53;;;-16.16;72.30
69035;BME280;56091;55.756;37.412;2023-02-22T01:43:00;97800.22;;;-16.04;71.85
69035;BME280;56091;55.756;37.412;2023-02-22T01:53:03;97822.69;;;-16.16;72.17
69035;BME280;56091;55.756;37.412;2023-02-22T01:58:05;97824.25;;;-16.24;72.11
69035;BME280;56091;55.756;37.412;2023-02-22T02:03:11;97830.13;;;-16.34;72.44
69035;BME280;56091;55.756;37.412;2023-02-22T02:13:43;97833.91;;;-16.49;72.05
69035;BME280;56091;55.756;37.412;2023-02-22T02:18:44;97838.84;;;-16.46;71.94
69035;BME280;56091;55.756;37.412;2023-02-22T02:29:50;97861.84;;;-16.65;72.58
69035;BME280;56091;55.756;37.412;2023-02-22T02:35:11;97866.69;;;-16.72;72.82
69035;BME280;56091;55.756;37.412;2023-02-22T02:40:31;97866.78;;;-16.74;72.55
69035;BME280;56091;55.756;37.412;2023-02-22T02:46:02;97870.56;;;-16.78;72.81
69035;BME280;56091;55.756;37.412;2023-02-22T02:51:02;97870.94;;;-16.82;72.69
69035;BME280;56091;55.756;37.412;2023-02-22T02:56:06;97859.34;;;-16.88;72.83
69035;BME280;56091;55.756;37.412;2023-02-22T03:01:07;97881.56;;;-16.76;72.75
69035;BME280;56091;55.756;37.412;2023-02-22T03:11:17;97883.97;;;-16.84;72.41
69035;BME280;56091;55.756;37.412;2023-02-22T03:16:33;97896.16;;;-16.86;72.62
69035;BME280;56091;55.756;37.412;2023-02-22T03:27:03;97912.78;;;-17.01;73.02
69035;BME280;56091;55.756;37.412;2023-02-22T03:32:14;97911.09;;;-17.25;73.19
69035;BME280;56091;55.756;37.412;2023-02-22T03:37:19;97922.38;;;-17.03;72.85
69035;BME280;56091;55.756;37.412;2023-02-22T03:42:30;97923.09;;;-17.13;72.25
69035;BME280;56091;55.756;37.412;2023-02-22T03:47:55;97929.38;;;-17.17;72.49
69035;BME280;56091;55.756;37.412;2023-02-22T03:53:00;97930.06;;;-17.37;72.71
69035;BME280;56091;55.756;37.412;2023-02-22T03:58:06;97951.44;;;-17.24;72.82
69035;BME280;56091;55.756;37.412;2023-02-22T04:03:09;97971.59;;;-17.18;72.74
69035;BME280;56091;55.756;37.412;2023-02-22T04:08:11;97965.75;;;-17.20;72.54
69035;BME280;56091;55.756;37.412;2023-02-22T04:13:11;97960.16;;;-17.38;72.59
69035;BME280;56091;55.756;37.412;2023-02-22T04:18:18;97970.03;;;-17.32;72.39
69035;BME280;56091;55.756;37.412;2023-02-22T04:23:21;97967.63;;;-17.46;72.31
69035;BME280;56091;55.756;37.412;2023-02-22T04:28:22;97992.97;;;-17.40;72.42
69035;BME280;56091;55.756;37.412;2023-02-22T04:33:28;98007.53;;;-17.03;76.06
69035;BME280;56091;55.756;37.412;2023-02-22T04:38:30;97997.56;;;-17.32;71.70
69035;BME280;56091;55.756;37.412;2023-02-22T04:43:32;97997.09;;;-17.37;71.87
69035;BME280;56091;55.756;37.412;2023-02-22T04:48:40;97998.50;;;-17.57;71.79
69035;BME280;56091;55.756;37.412;2023-02-22T04:53:41;98009.22;;;-17.51;72.27
69035;BME280;56091;55.756;37.412;2023-02-22T04:58:42;98020.72;;;-17.43;71.95
69035;BME280;56091;55.756;37.412;2023-02-22T05:03:43;98011.19;;;-17.54;71.86
69035;BME280;56091;55.756;37.412;2023-02-22T05:08:43;98032.28;;;-17.49;71.76
69035;BME280;56091;55.756;37.412;2023-02-22T05:13:44;98018.69;;;-17.51;71.92
69035;BME280;56091;55.756;37.412;2023-02-22T05:18:45;98020.19;;;-17.60;71.71
69035;BME280;56091;55.756;37.412;2023-02-22T05:23:46;98038.16;;;-17.47;71.44
69035;BME280;56091;55.756;37.412;2023-02-22T05:28:52;98050.03;;;-17.44;71.43
69035;BME280;56091;55.756;37.412;2023-02-22T05:33:53;98045.94;;;-17.36;71.05
69035;BME280;56091;55.756;37.412;2023-02-22T05:38:54;98054.78;;;-17.03;69.94
69035;BME280;56091;55.756;37.412;2023-02-22T05:43:55;98063.31;;;-17.14;69.62
69035;BME280;56091;55.756;37.412;2023-02-22T05:48:56;98041.25;;;-17.18;69.77
69035;BME280;56091;55.756;37.412;2023-02-22T05:53:57;98075.50;;;-16.80;71.53
69035;BME280;56091;55.756;37.412;2023-02-22T05:59:00;98076.69;;;-16.26;68.97
69035;BME280;56091;55.756;37.412;2023-02-22T06:04:01;98087.34;;;-16.42;67.03
69035;BME280;56091;55.756;37.412;2023-02-22T06:09:04;98089.84;;;-16.65;67.78
69035;BME280;56091;55.756;37.412;2023-02-22T06:14:07;98098.16;;;-16.73;67.90
69035;BME280;56091;55.756;37.412;2023-02-22T06:19:08;98095.19;;;-16.79;67.53
69035;BME280;56091;55.756;37.412;2023-02-22T06:24:09;98111.06;;;-16.73;67.88
69035;BME280;56091;55.756;37.412;2023-02-22T06:29:10;98112.44;;;-16.80;67.67
69035;BME280;56091;55.756;37.412;2023-02-22T06:34:11;98110.34;;;-16.75;67.80
69035;BME280;56091;55.756;37.412;2023-02-22T06:39:11;98120.00;;;-16.65;67.10
69035;BME280;56091;55.756;37.412;2023-02-22T06:44:13;98113.09;;;-16.65;66.61
69035;BME280;56091;55.756;37.412;2023-02-22T06:49:14;98087.13;;;-16.75;66.68
69035;BME280;56091;55.756;37.412;2023-02-22T06:54:15;98130.97;;;-16.51;66.26
69035;BME280;56091;55.756;37.412;2023-02-22T06:59:19;98131.53;;;-16.58;66.32
69035;BME280;56091;55.756;37.412;2023-02-22T07:04:22;98068.72;;;-16.70;65.83
69035;BME280;56091;55.756;37.412;2023-02-22T07:09:23;98124.81;;;-16.14;65.16
69035;BME280;56091;55.756;37.412;2023-02-22T07:14:24;98148.09;;;-16.03;65.39
69035;BME280;56091;55.756;37.412;2023-02-22T07:19:26;98145.09;;;-15.85;64.41
69035;BME280;56091;55.756;37.412;2023-02-22T07:24:26;98146.22;;;-15.67;64.41
69035;BME280;56091;55.756;37.412;2023-02-22T07:29:33;98147.66;;;-15.63;63.87
69035;BME280;56091;55.756;37.412;2023-02-22T07:34:38;98146.00;;;-15.53;63.64
69035;BME280;56091;55.756;37.412;2023-02-22T07:39:41;98156.69;;;-15.23;63.09
69035;BME280;56091;55.756;37.412;2023-02-22T07:44:43;98174.91;;;-14.70;62.09
69035;BME280;56091;55.756;37.412;2023-02-22T07:49:44;98156.53;;;-14.99;61.85
69035;BME280;56091;55.756;37.412;2023-02-22T07:54:45;98184.44;;;-14.59;61.54
69035;BME280;56091;55.756;37.412;2023-02-22T07:59:46;98174.63;;;-14.88;61.73
69035;BME280;56091;55.756;37.412;2023-02-22T08:04:48;98181.31;;;-14.53;61.77
69035;BME280;56091;55.756;37.412;2023-02-22T08:09:49;98191.41;;;-14.39;61.99
69035;BME280;56091;55.756;37.412;2023-02-22T08:14:49;98196.59;;;-14.39;62.27
69035;BME280;56091;55.756;37.412;2023-02-22T08:19:50;98193.38;;;-14.31;61.63
69035;BME280;56091;55.756;37.412;2023-02-22T08:24:51;98192.44;;;-14.30;61.34
69035;BME280;56091;55.756;37.412;2023-02-22T08:29:54;98198.97;;;-14.47;61.92
69035;BME280;56091;55.756;37.412;2023-02-22T08:34:55;98206.59;;;-14.45;61.59
69035;BME280;56091;55.756;37.412;2023-02-22T08:39:56;98210.81;;;-14.65;61.40
69035;BME280;56091;55.756;37.412;2023-02-22T08:44:57;98223.16;;;-14.25;61.90
69035;BME280;56091;55.756;37.412;2023-02-22T08:49:57;98193.34;;;-14.52;61.74
69035;BME280;56091;55.756;37.412;2023-02-22T08:54:58;98220.13;;;-14.09;61.45
69035;BME280;56091;55.756;37.412;2023-02-22T08:59:59;98219.03;;;-13.96;61.35
69035;BME280;56091;55.756;37.412;2023-02-22T09:05:00;98227.16;;;-14.00;60.76
69035;BME280;56091;55.756;37.412;2023-02-22T09:10:01;98236.47;;;-13.98;61.09
69035;BME280;56091;55.756;37.412;2023-02-22T09:15:05;98232.06;;;-13.65;60.54
69035;BME280;56091;55.756;37.412;2023-02-22T09:20:08;98240.66;;;-13.64;59.83
69035;BME280;56091;55.756;37.412;2023-02-22T09:25:11;98239.72;;;-13.84;60.58
69035;BME280;56091;55.756;37.412;2023-02-22T09:35:23;98253.94;;;-13.37;59.99
69035;BME280;56091;55.756;37.412;2023-02-22T09:40:29;98256.06;;;-13.42;59.51
69035;BME280;56091;55.756;37.412;2023-02-22T09:45:50;98264.00;;;-13.43;59.65
69035;BME280;56091;55.756;37.412;2023-02-22T09:50:56;98257.47;;;-13.07;59.68
69035;BME280;56091;55.756;37.412;2023-02-22T09:56:13;98266.94;;;-12.96;59.11
69035;BME280;56091;55.756;37.412;2023-02-22T10:01:40;98269.72;;;-12.88;58.57
69035;BME280;56091;55.756;37.412;2023-02-22T10:07:05;98269.59;;;-12.77;57.96
69035;BME280;56091;55.756;37.412;2023-02-22T10:12:47;98272.63;;;-12.21;59.35
69035;BME280;56091;55.756;37.412;2023-02-22T10:23:46;98289.84;;;-12.20;56.92
69035;BME280;56091;55.756;37.412;2023-02-22T10:34:04;98276.41;;;-12.85;57.59
69035;BME280;56091;55.756;37.412;2023-02-22T10:44:15;98295.72;;;-12.78;58.36
69035;BME280;56091;55.756;37.412;2023-02-22T10:49:20;98285.25;;;-12.57;58.63
69035;BME280;56091;55.756;37.412;2023-02-22T10:54:31;98307.84;;;-12.48;58.32
69035;BME280;56091;55.756;37.412;2023-02-22T10:59:37;98293.38;;;-13.12;59.25
69035;BME280;56091;55.756;37.412;2023-02-22T11:04:50;98280.41;;;-12.71;58.95
69035;BME280;56091;55.756;37.412;2023-02-22T11:09:55;98319.22;;;-12.80;58.23
69035;BME280;56091;55.756;37.412;2023-02-22T11:15:26;98319.00;;;-12.67;58.71
69035;BME280;56091;55.756;37.412;2023-02-22T11:20:31;98330.31;;;-12.78;57.99
69035;BME280;56091;55.756;37.412;2023-02-22T11:25:37;98329.44;;;-12.57;58.43
69035;BME280;56091;55.756;37.412;2023-02-22T11:30:40;98338.38;;;-12.40;57.75
69035;BME280;56091;55.756;37.412;2023-02-22T11:35:56;98334.38;;;-12.04;57.27
69035;BME280;56091;55.756;37.412;2023-02-22T11:51:40;98350.44;;;-12.29;57.66
69035;BME280;56091;55.756;37.412;2023-02-22T11:56:49;98349.88;;;-12.33;57.66
69035;BME280;56091;55.756;37.412;2023-02-22T12:01:56;98364.31;;;-12.19;57.63
69035;BME280;56091;55.756;37.412;2023-02-22T12:12:58;98371.53;;;-12.23;57.66
69035;BME280;56091;55.756;37.412;2023-02-22T12:18:30;98379.81;;;-12.39;58.69
69035;BME280;56091;55.756;37.412;2023-02-22T12:23:46;98420.34;;;-12.36;58.43
69035;BME280;56091;55.756;37.412;2023-02-22T12:28:54;98418.22;;;-12.21;58.78
69035;BME280;56091;55.756;37.412;2023-02-22T12:34:10;98395.84;;;-12.33;58.94
69035;BME280;56091;55.756;37.412;2023-02-22T12:40:08;98407.19;;;-12.04;58.62
69035;BME280;56091;55.756;37.412;2023-02-22T12:45:07;98415.56;;;-11.81;58.04
69035;BME280;56091;55.756;37.412;2023-02-22T12:55:32;98427.09;;;-11.64;57.86
69035;BME280;56091;55.756;37.412;2023-02-22T13:01:10;98437.63;;;-11.65;57.68
69035;BME280;56091;55.756;37.412;2023-02-22T13:11:44;98452.81;;;-11.80;57.91
69035;BME280;56091;55.756;37.412;2023-02-22T13:17:05;98454.59;;;-11.81;58.09
69035;BME280;56091;55.756;37.412;2023-02-22T13:22:14;98465.59;;;-11.67;58.54
69035;BME280;56091;55.756;37.412;2023-02-22T13:27:40;98448.03;;;-11.75;58.46
69035;BME280;56091;55.756;37.412;2023-02-22T13:59:29;98483.75;;;-11.87;59.67
69035;BME280;56091;55.756;37.412;2023-02-22T14:04:34;98475.41;;;-11.90;59.85
69035;BME280;56091;55.756;37.412;2023-02-22T14:09:51;98490.47;;;-11.94;60.11
69035;BME280;56091;55.756;37.412;2023-02-22T14:20:18;98511.84;;;-12.21;61.25
69035;BME280;56091;55.756;37.412;2023-02-22T14:25:36;98486.09;;;-12.24;61.72
69035;BME280;56091;55.756;37.412;2023-02-22T14:30:38;98492.50;;;-12.28;61.92
69035;BME280;56091;55.756;37.412;2023-02-22T14:35:42;98494.84;;;-12.25;62.11
69035;BME280;56091;55.756;37.412;2023-02-22T14:40:44;98496.59;;;-12.26;62.19
69035;BME280;56091;55.756;37.412;2023-02-22T14:45:51;98500.41;;;-12.30;62.41
69035;BME280;56091;55.756;37.412;2023-02-22T14:50:59;98523.44;;;-12.46;62.92
69035;BME280;56091;55.756;37.412;2023-02-22T14:56:04;98513.56;;;-12.52;63.54
69035;BME280;56091;55.756;37.412;2023-02-22T15:01:28;98528.09;;;-12.50;63.60
69035;BME280;56091;55.756;37.412;2023-02-22T15:06:36;98522.44;;;-12.55;63.82
69035;BME280;56091;55.756;37.412;2023-02-22T15:11:43;98530.25;;;-12.55;64.05
69035;BME280;56091;55.756;37.412;2023-02-22T15:16:48;98536.25;;;-12.54;64.39
69035;BME280;56091;55.756;37.412;2023-02-22T15:21:52;98534.16;;;-12.61;64.56
69035;BME280;56091;55.756;37.412;2023-02-22T15:26:54;98537.63;;;-12.71;64.91
69035;BME280;56091;55.756;37.412;2023-02-22T15:31:55;98541.63;;;-12.67;65.19
69035;BME280;56091;55.756;37.412;2023-02-22T15:37:01;98560.38;;;-12.64;65.08
69035;BME280;56091;55.756;37.412;2023-02-22T15:42:14;98545.44;;;-12.71;65.67
69035;BME280;56091;55.756;37.412;2023-02-22T15:47:28;98561.53;;;-12.78;66.01
69035;BME280;56091;55.756;37.412;2023-02-22T15:52:29;98566.53;;;-12.86;66.17
69035;BME280;56091;55.756;37.412;2023-02-22T15:57:35;98553.03;;;-12.80;66.40
69035;BME280;56091;55.756;37.412;2023-02-22T16:02:37;98543.84;;;-12.84;66.67
69035;BME280;56091;55.756;37.412;2023-02-22T16:07:41;98558.69;;;-12.74;66.43
69035;BME280;56091;55.756;37.412;2023-02-22T16:12:47;98587.53;;;-12.89;67.19
69035;BME280;56091;55.756;37.412;2023-02-22T16:17:49;98582.47;;;-12.90;67.12
69035;BME280;56091;55.756;37.412;2023-02-22T16:22:50;98563.25;;;-12.99;67.39
69035;BME280;56091;55.756;37.412;2023-02-22T16:28:00;98579.28;;;-12.94;67.63
69035;BME280;56091;55.756;37.412;2023-02-22T16:33:08;98592.16;;;-12.92;67.51
69035;BME280;56091;55.756;37.412;2023-02-22T16:38:18;98593.69;;;-13.01;67.80
69035;BME280;56091;55.756;37.412;2023-02-22T16:43:22;98572.72;;;-13.09;67.84
69035;BME280;56091;55.756;37.412;2023-02-22T16:48:25;98601.75;;;-13.04;68.18
69035;BME280;56091;55.756;37.412;2023-02-22T16:53:29;98603.38;;;-13.03;68.08
69035;BME280;56091;55.756;37.412;2023-02-22T16:58:33;98605.97;;;-13.03;68.14
69035;BME280;56091;55.756;37.412;2023-02-22T17:03:34;98606.72;;;-13.12;68.55
69035;BME280;56091;55.756;37.412;2023-02-22T17:08:38;98614.63;;;-13.14;68.67
69035;BME280;56091;55.756;37.412;2023-02-22T17:13:39;98600.25;;;-13.18;68.62
69035;BME280;56091;55.756;37.412;2023-02-22T17:18:40;98628.22;;;-13.10;68.77
69035;BME280;56091;55.756;37.412;2023-02-22T17:23:42;98632.69;;;-13.12;69.08
69035;BME280;56091;55.756;37.412;2023-02-22T17:28:46;98640.50;;;-13.12;68.97
69035;BME280;56091;55.756;37.412;2023-02-22T17:33:47;98634.34;;;-13.23;69.03
69035;BME280;56091;55.756;37.412;2023-02-22T17:38:51;98662.66;;;-13.08;68.85
69035;BME280;56091;55.756;37.412;2023-02-22T17:43:51;98650.63;;;-13.09;68.78
69035;BME280;56091;55.756;37.412;2023-02-22T17:48:53;98660.31;;;-13.11;69.12
69035;BME280;56091;55.756;37.412;2023-02-22T17:53:54;98629.91;;;-13.32;68.84
69035;BME280;56091;55.756;37.412;2023-02-22T17:58:55;98665.38;;;-13.10;68.66
69035;BME280;56091;55.756;37.412;2023-02-22T18:03:58;98663.59;;;-13.09;68.69
69035;BME280;56091;55.756;37.412;2023-02-22T18:09:01;98676.94;;;-13.14;68.80
69035;BME280;56091;55.756;37.412;2023-02-22T18:14:12;98664.09;;;-13.16;68.65
69035;BME280;56091;55.756;37.412;2023-02-22T18:19:13;98681.88;;;-13.11;68.58
69035;BME280;56091;55.756;37.412;2023-02-22T18:24:19;98683.78;;;-13.13;68.36
69035;BME280;56091;55.756;37.412;2023-02-22T18:29:20;98683.06;;;-13.15;68.25
69035;BME280;56091;55.756;37.412;2023-02-22T18:34:21;98680.84;;;-13.20;68.15
69035;BME280;56091;55.756;37.412;2023-02-22T18:39:24;98677.41;;;-13.20;68.29
69035;BME280;56091;55.756;37.412;2023-02-22T18:44:25;98680.25;;;-13.12;67.91
69035;BME280;56091;55.756;37.412;2023-02-22T18:49:29;98690.53;;;-13.22;67.90
69035;BME280;56091;55.756;37.412;2023-02-22T18:54:34;98690.97;;;-13.17;68.03
69035;BME280;56091;55.756;37.412;2023-02-22T18:59:43;98695.03;;;-13.12;67.91
69035;BME280;56091;55.756;37.412;2023-02-22T19:04:45;98670.94;;;-13.26;67.67
69035;BME280;56091;55.756;37.412;2023-02-22T19:09:46;98707.84;;;-13.11;67.79
69035;BME280;56091;55.756;37.412;2023-02-22T19:14:50;98706.22;;;-13.12;67.94
69035;BME280;56091;55.756;37.412;2023-02-22T19:19:51;98714.50;;;-13.18;67.99
69035;BME280;56091;55.756;37.412;2023-02-22T19:24:54;98708.22;;;-13.16;68.17
69035;BME280;56091;55.756;37.412;2023-02-22T19:29:56;98716.25;;;-13.19;68.05
69035;BME280;56091;55.756;37.412;2023-02-22T19:34:57;98721.44;;;-13.19;68.20
69035;BME280;56091;55.756;37.412;2023-02-22T19:40:06;98703.75;;;-13.25;68.20
69035;BME280;56091;55.756;37.412;2023-02-22T19:45:11;98726.50;;;-13.17;67.97
69035;BME280;56091;55.756;37.412;2023-02-22T19:50:13;98732.31;;;-13.13;68.08
69035;BME280;56091;55.756;37.412;2023-02-22T19:55:17;98734.19;;;-13.16;68.17
69035;BME280;56091;55.756;37.412;2023-02-22T20:00:20;98738.19;;;-13.23;68.19
69035;BME280;56091;55.756;37.412;2023-02-22T20:05:24;98728.53;;;-13.32;68.24
69035;BME280;56091;55.756;37.412;2023-02-22T20:10:28;98733.13;;;-13.36;68.32
69035;BME280;56091;55.756;37.412;2023-02-22T20:15:32;98732.09;;;-13.33;68.36
69035;BME280;56091;55.756;37.412;2023-02-22T20:20:33;98729.00;;;-13.49;68.64
69035;BME280;56091;55.756;37.412;2023-02-22T20:25:36;98745.06;;;-13.44;68.61
69035;BME280;56091;55.756;37.412;2023-02-22T20:30:39;98760.28;;;-13.40;68.45
69035;BME280;56091;55.756;37.412;2023-02-22T20:35:40;98758.97;;;-13.45;68.93
69035;BME280;56091;55.756;37.412;2023-02-22T20:40:41;98735.84;;;-13.60;68.84
69035;BME280;56091;55.756;37.412;2023-02-22T20:45:42;98767.78;;;-13.59;69.02
69035;BME280;56091;55.756;37.412;2023-02-22T20:50:43;98769.81;;;-13.51;69.08
69035;BME280;56091;55.756;37.412;2023-02-22T20:55:48;98754.22;;;-13.63;69.53
69035;BME280;56091;55.756;37.412;2023-02-22T21:00:49;98773.44;;;-13.65;69.53
69035;BME280;56091;55.756;37.412;2023-02-22T21:05:50;98776.13;;;-13.67;69.59
69035;BME280;56091;55.756;37.412;2023-02-22T21:10:51;98772.38;;;-13.63;69.53
69035;BME280;56091;55.756;37.412;2023-02-22T21:15:52;98792.31;;;-13.63;69.25
69035;BME280;56091;55.756;37.412;2023-02-22T21:20:53;98793.47;;;-13.67;69.56
69035;BME280;56091;55.756;37.412;2023-02-22T21:25:54;98794.31;;;-13.67;69.64
69035;BME280;56091;55.756;37.412;2023-02-22T21:30:54;98798.16;;;-13.72;69.62
69035;BME280;56091;55.756;37.412;2023-02-22T21:36:07;98801.84;;;-13.75;69.87
69035;BME280;56091;55.756;37.412;2023-02-22T21:41:14;98799.22;;;-13.75;69.65
69035;BME280;56091;55.756;37.412;2023-02-22T21:46:15;98812.31;;;-13.77;69.89
69035;BME280;56091;55.756;37.412;2023-02-22T21:51:22;98810.94;;;-13.93;70.30
69035;BME280;56091;55.756;37.412;2023-02-22T21:56:24;98824.94;;;-13.96;70.33
69035;BME280;56091;55.756;37.412;2023-02-22T22:01:33;98811.91;;;-14.07;70.46
69035;BME280;56091;55.756;37.412;2023-02-22T22:06:35;98832.28;;;-14.14;70.69
69035;BME280;56091;55.756;37.412;2023-02-22T22:11:36;98804.59;;;-14.38;70.99
69035;BME280;56091;55.756;37.412;2023-02-22T22:16:36;98830.97;;;-14.32;71.31
69035;BME280;56091;55.756;37.412;2023-02-22T22:21:38;98803.47;;;-14.46;71.35
69035;BME280;56091;55.756;37.412;2023-02-22T22:26:39;98817.47;;;-14.49;71.78
69035;BME280;56091;55.756;37.412;2023-02-22T22:31:39;98828.22;;;-14.42;72.00
69035;BME280;56091;55.756;37.412;2023-02-22T22:36:43;98840.66;;;-14.47;71.96
69035;BME280;56091;55.756;37.412;2023-02-22T22:41:44;98817.00;;;-14.67;72.09
69035;BME280;56091;55.756;37.412;2023-02-22T22:46:45;98846.84;;;-14.61;72.49
69035;BME280;56091;55.756;37.412;2023-02-22T22:51:49;98837.63;;;-14.65;72.39
69035;BME280;56091;55.756;37.412;2023-02-22T22:56:50;98830.38;;;-14.73;72.60
69035;BME280;56091;55.756;37.412;2023-02-22T23:01:51;98836.81;;;-14.66;72.69
69035;BME280;56091;55.756;37.412;2023-02-22T23:06:53;98844.88;;;-14.70;72.35
69035;BME280;56091;55.756;37.412;2023-02-22T23:11:57;98834.66;;;-14.85;72.79
69035;BME280;56091;55.756;37.412;2023-02-22T23:17:03;98836.72;;;-14.77;72.95
69035;BME280;56091;55.756;37.412;2023-02-22T23:22:05;98836.81;;;-14.79;72.91
69035;BME280;56091;55.756;37.412;2023-02-22T23:27:06;98828.22;;;-14.92;73.08
69035;BME280;56091;55.756;37.412;2023-02-22T23:32:10;98850.19;;;-14.85;73.29
69035;BME280;56091;55.756;37.412;2023-02-22T23:37:13;98858.44;;;-14.80;73.12
69035;BME280;56091;55.756;37.412;2023-02-22T23:42:14;98862.72;;;-14.79;73.27
69035;BME280;56091;55.756;37.412;2023-02-22T23:47:18;98861.16;;;-14.81;73.02
69035;BME280;56091;55.756;37.412;2023-02-22T23:52:19;98864.78;;;-14.97;73.62
69035;BME280;56091;55.756;37.412;2023-02-22T23:57:24;98869.66;;;-15.05;73.52
